sensor_id;sensor_type;location;lat;lon;timestamp;P1;P4;P2;P0;N10;N4;N25;N1;N05;TS
82310;SPS30;72015;51.330;12.316;2023-08-12T00:04:03;4.22;;4.22;;;;;;;
82310;SPS30;72015;51.330;12.316;2023-08-12T00:08:11;4.22;;4.22;;;;;;;
82310;SPS30;72015;51.330;12.316;2023-08-12T00:12:19;3.71;;3.71;;;;;;;
82310;SPS30;72015;51.330;12.316;2023-08-12T00:16:27;3.71;;3.71;;;;;;;
82310;SPS30;72015;51.330;12.316;2023-08-12T00:20:35;3.71;;3.71;;;;;;;
82310;SPS30;72015;51.330;12.316;2023-08-12T00:24:43;4.17;;4.17;;;;;;;
82310;SPS30;72015;51.330;12.316;2023-08-12T00:28:51;4.17;;4.17;;;;;;;
82310;SPS30;72015;51.330;12.316;2023-08-12T00:32:59;4.43;;4.43;;;;;;;
82310;SPS30;72015;51.330;12.316;2023-08-12T00:37:07;4.43;;4.43;;;;;;;
82310;SPS30;72015;51.330;12.316;2023-08-12T00:41:15;4.43;;4.43;;;;;;;
82310;SPS30;72015;51.330;12.316;2023-08-12T00:45:23;4.90;;4.90;;;;;;;
82310;SPS30;72015;51.330;12.316;2023-08-12T00:49:31;4.90;;4.90;;;;;;;
82310;SPS30;72015;51.330;12.316;2023-08-12T00:53:39;4.38;;4.38;;;;;;;
82310;SPS30;72015;51.330;12.316;2023-08-12T00:57:47;4.38;;4.38;;;;;;;
82310;SPS30;72015;51.330;12.316;2023-08-12T01:01:55;8.06;;7.04;;;;;;;
82310;SPS30;72015;51.330;12.316;2023-08-12T01:06:03;8.06;;7.04;;;;;;;
82310;SPS30;72015;51.330;12.316;2023-08-12T01:10:11;8.06;;7.04;;;;;;;
82310;SPS30;72015;51.330;12.316;2023-08-12T01:14:22;5.91;;5.91;;;;;;;
82310;SPS30;72015;51.330;12.316;2023-08-12T01:18:27;5.91;;5.91;;;;;;;
82310;SPS30;72015;51.330;12.316;2023-08-12T01:22:38;6.75;;6.55;;;;;;;
82310;SPS30;72015;51.330;12.316;2023-08-12T01:26:43;6.75;;6.55;;;;;;;
82310;SPS30;72015;51.330;12.316;2023-08-12T01:30:55;6.75;;6.55;;;;;;;
82310;SPS30;72015;51.330;12.316;2023-08-12T01:39:07;5.87;;5.87;;;;;;;
82310;SPS30;72015;51.330;12.316;2023-08-12T01:43:15;6.44;;6.44;;;;;;;
82310;SPS30;72015;51.330;12.316;2023-08-12T01:47:23;6.44;;6.44;;;;;;;
82310;SPS30;72015;51.330;12.316;2023-08-12T01:51:31;6.44;;6.44;;;;;;;
82310;SPS30;72015;51.330;12.316;2023-08-12T01:55:42;8.34;;8.02;;;;;;;
82310;SPS30;72015;51.330;12.316;2023-08-12T01:59:47;8.34;;8.02;;;;;;;
82310;SPS30;72015;51.330;12.316;2023-08-12T02:03:55;7.56;;7.56;;;;;;;
82310;SPS30;72015;51.330;12.316;2023-08-12T02:08:04;7.56;;7.56;;;;;;;
82310;SPS30;72015;51.330;12.316;2023-08-12T02:12:11;6.36;;6.36;;;;;;;
82310;SPS30;72015;51.330;12.316;2023-08-12T02:16:19;6.36;;6.36;;;;;;;
82310;SPS30;72015;51.330;12.316;2023-08-12T02:20:27;6.36;;6.36;;;;;;;
82310;SPS30;72015;51.330;12.316;2023-08-12T02:24:35;6.81;;6.81;;;;;;;
82310;SPS30;72015;51.330;12.316;2023-08-12T02:28:43;6.81;;6.81;;;;;;;
82310;SPS30;72015;51.330;12.316;2023-08-12T02:32:51;7.68;;7.68;;;;;;;
82310;SPS30;72015;51.330;12.316;2023-08-12T02:36:59;7.68;;7.68;;;;;;;
82310;SPS30;72015;51.330;12.316;2023-08-12T02:41:07;7.68;;7.68;;;;;;;
82310;SPS30;72015;51.330;12.316;2023-08-12T02:45:15;9.19;;8.25;;;;;;;
82310;SPS30;72015;51.330;12.316;2023-08-12T02:49:23;9.19;;8.25;;;;;;;
82310;SPS30;72015;51.330;12.316;2023-08-12T02:53:31;7.72;;7.72;;;;;;;
82310;SPS30;72015;51.330;12.316;2023-08-12T02:57:39;7.72;;7.72;;;;;;;
82310;SPS30;72015;51.330;12.316;2023-08-12T03:01:47;7.72;;7.72;;;;;;;
82310;SPS30;72015;51.330;12.316;2023-08-12T03:05:55;6.89;;6.89;;;;;;;
82310;SPS30;72015;51.330;12.316;2023-08-12T03:10:04;6.89;;6.89;;;;;;;
82310;SPS30;72015;51.330;12.316;2023-08-12T03:14:11;7.60;;7.60;;;;;;;
82310;SPS30;72015;51.330;12.316;2023-08-12T03:18:20;7.60;;7.60;;;;;;;
82310;SPS30;72015;51.330;12.316;2023-08-12T03:22:27;8.18;;7.84;;;;;;;
82310;SPS30;72015;51.330;12.316;2023-08-12T03:26:35;8.18;;7.84;;;;;;;
82310;SPS30;72015;51.330;12.316;2023-08-12T03:30:49;8.18;;7.84;;;;;;;
82310;SPS30;72015;51.330;12.316;2023-08-12T03:34:51;7.93;;7.93;;;;;;;
82310;SPS30;72015;51.330;12.316;2023-08-12T03:38:59;7.93;;7.93;;;;;;;
82310;SPS30;72015;51.330;12.316;2023-08-12T03:43:07;9.10;;8.90;;;;;;;
82310;SPS30;72015;51.330;12.316;2023-08-12T03:47:15;9.10;;8.90;;;;;;;
82310;SPS30;72015;51.330;12.316;2023-08-12T03:51:23;9.10;;8.90;;;;;;;
82310;SPS30;72015;51.330;12.316;2023-08-12T03:55:32;7.34;;7.34;;;;;;;
82310;SPS30;72015;51.330;12.316;2023-08-12T03:59:39;7.34;;7.34;;;;;;;
82310;SPS30;72015;51.330;12.316;2023-08-12T04:03:47;7.20;;7.20;;;;;;;
82310;SPS30;72015;51.330;12.316;2023-08-12T04:07:55;7.20;;7.20;;;;;;;
82310;SPS30;72015;51.330;12.316;2023-08-12T04:12:03;6.75;;6.75;;;;;;;
82310;SPS30;72015;51.330;12.316;2023-08-12T04:16:12;6.75;;6.75;;;;;;;
82310;SPS30;72015;51.330;12.316;2023-08-12T04:20:19;6.75;;6.75;;;;;;;
82310;SPS30;72015;51.330;12.316;2023-08-12T04:24:27;6.42;;6.42;;;;;;;
82310;SPS30;72015;51.330;12.316;2023-08-12T04:28:35;6.42;;6.42;;;;;;;
82310;SPS30;72015;51.330;12.316;2023-08-12T04:32:43;7.21;;7.21;;;;;;;
82310;SPS30;72015;51.330;12.316;2023-08-12T04:36:51;7.21;;7.21;;;;;;;
82310;SPS30;72015;51.330;12.316;2023-08-12T04:40:59;7.21;;7.21;;;;;;;
82310;SPS30;72015;51.330;12.316;2023-08-12T04:45:08;6.64;;6.64;;;;;;;
82310;SPS30;72015;51.330;12.316;2023-08-12T04:49:16;6.64;;6.64;;;;;;;
82310;SPS30;72015;51.330;12.316;2023-08-12T04:53:23;6.68;;6.68;;;;;;;
82310;SPS30;72015;51.330;12.316;2023-08-12T04:57:31;6.68;;6.68;;;;;;;
82310;SPS30;72015;51.330;12.316;2023-08-12T05:01:39;6.68;;6.68;;;;;;;
82310;SPS30;72015;51.330;12.316;2023-08-12T05:05:49;7.76;;7.76;;;;;;;
82310;SPS30;72015;51.330;12.316;2023-08-12T05:09:55;7.76;;7.76;;;;;;;
82310;SPS30;72015;51.330;12.316;2023-08-12T05:14:03;6.60;;6.60;;;;;;;
82310;SPS30;72015;51.330;12.316;2023-08-12T05:18:11;6.60;;6.60;;;;;;;
82310;SPS30;72015;51.330;12.316;2023-08-12T05:22:19;7.30;;7.02;;;;;;;
82310;SPS30;72015;51.330;12.316;2023-08-12T05:26:28;7.30;;7.02;;;;;;;
82310;SPS30;72015;51.330;12.316;2023-08-12T05:30:35;7.30;;7.02;;;;;;;
82310;SPS30;72015;51.330;12.316;2023-08-12T05:34:43;7.28;;7.28;;;;;;;
82310;SPS30;72015;51.330;12.316;2023-08-12T05:38:51;7.28;;7.28;;;;;;;
82310;SPS30;72015;51.330;12.316;2023-08-12T05:42:59;6.33;;6.33;;;;;;;
82310;SPS30;72015;51.330;12.316;2023-08-12T05:47:08;6.33;;6.33;;;;;;;
82310;SPS30;72015;51.330;12.316;2023-08-12T05:51:15;6.33;;6.33;;;;;;;
82310;SPS30;72015;51.330;12.316;2023-08-12T05:55:23;5.80;;5.80;;;;;;;
82310;SPS30;72015;51.330;12.316;2023-08-12T05:59:32;5.80;;5.80;;;;;;;
82310;SPS30;72015;51.330;12.316;2023-08-12T06:03:40;8.15;;7.28;;;;;;;
82310;SPS30;72015;51.330;12.316;2023-08-12T06:07:48;8.15;;7.28;;;;;;;
82310;SPS30;72015;51.330;12.316;2023-08-12T06:11:56;6.63;;6.63;;;;;;;
82310;SPS30;72015;51.330;12.316;2023-08-12T06:16:04;6.63;;6.63;;;;;;;
82310;SPS30;72015;51.330;12.316;2023-08-12T06:20:12;6.63;;6.63;;;;;;;
82310;SPS30;72015;51.330;12.316;2023-08-12T06:24:20;6.03;;6.03;;;;;;;
82310;SPS30;72015;51.330;12.316;2023-08-12T06:28:28;6.03;;6.03;;;;;;;
82310;SPS30;72015;51.330;12.316;2023-08-12T06:32:36;7.36;;6.82;;;;;;;
82310;SPS30;72015;51.330;12.316;2023-08-12T06:36:44;7.36;;6.82;;;;;;;
82310;SPS30;72015;51.330;12.316;2023-08-12T06:40:52;7.36;;6.82;;;;;;;
82310;SPS30;72015;51.330;12.316;2023-08-12T06:45:00;6.57;;6.57;;;;;;;
82310;SPS30;72015;51.330;12.316;2023-08-12T06:49:08;6.57;;6.57;;;;;;;
82310;SPS30;72015;51.330;12.316;2023-08-12T06:53:16;7.86;;7.32;;;;;;;
82310;SPS30;72015;51.330;12.316;2023-08-12T06:57:24;7.86;;7.32;;;;;;;
82310;SPS30;72015;51.330;12.316;2023-08-12T07:01:32;7.86;;7.32;;;;;;;
82310;SPS30;72015;51.330;12.316;2023-08-12T07:05:40;6.71;;6.38;;;;;;;
82310;SPS30;72015;51.330;12.316;2023-08-12T07:09:48;6.71;;6.38;;;;;;;
82310;SPS30;72015;51.330;12.316;2023-08-12T07:13:56;5.36;;5.36;;;;;;;
82310;SPS30;72015;51.330;12.316;2023-08-12T07:18:04;5.36;;5.36;;;;;;;
82310;SPS30;72015;51.330;12.316;2023-08-12T07:22:12;5.44;;5.44;;;;;;;
82310;SPS30;72015;51.330;12.316;2023-08-12T07:26:20;5.44;;5.44;;;;;;;
82310;SPS30;72015;51.330;12.316;2023-08-12T07:30:28;5.44;;5.44;;;;;;;
82310;SPS30;72015;51.330;12.316;2023-08-12T07:34:36;6.03;;6.03;;;;;;;
82310;SPS30;72015;51.330;12.316;2023-08-12T07:38:44;6.03;;6.03;;;;;;;
82310;SPS30;72015;51.330;12.316;2023-08-12T07:42:52;6.12;;6.12;;;;;;;
82310;SPS30;72015;51.330;12.316;2023-08-12T07:47:00;6.12;;6.12;;;;;;;
82310;SPS30;72015;51.330;12.316;2023-08-12T07:51:08;6.12;;6.12;;;;;;;
82310;SPS30;72015;51.330;12.316;2023-08-12T07:55:16;6.48;;6.48;;;;;;;
82310;SPS30;72015;51.330;12.316;2023-08-12T07:59:24;6.48;;6.48;;;;;;;
82310;SPS30;72015;51.330;12.316;2023-08-12T08:03:32;5.62;;5.62;;;;;;;
82310;SPS30;72015;51.330;12.316;2023-08-12T08:07:40;5.62;;5.62;;;;;;;
82310;SPS30;72015;51.330;12.316;2023-08-12T08:11:48;5.81;;5.72;;;;;;;
82310;SPS30;72015;51.330;12.316;2023-08-12T08:15:56;5.81;;5.72;;;;;;;
82310;SPS30;72015;51.330;12.316;2023-08-12T08:20:04;5.81;;5.72;;;;;;;
82310;SPS30;72015;51.330;12.316;2023-08-12T08:24:12;5.98;;5.98;;;;;;;
82310;SPS30;72015;51.330;12.316;2023-08-12T08:28:20;5.98;;5.98;;;;;;;
82310;SPS30;72015;51.330;12.316;2023-08-12T08:32:28;6.15;;6.15;;;;;;;
82310;SPS30;72015;51.330;12.316;2023-08-12T08:36:36;6.15;;6.15;;;;;;;
82310;SPS30;72015;51.330;12.316;2023-08-12T08:40:44;6.15;;6.15;;;;;;;
82310;SPS30;72015;51.330;12.316;2023-08-12T08:44:52;5.75;;5.75;;;;;;;
82310;SPS30;72015;51.330;12.316;2023-08-12T08:49:00;5.75;;5.75;;;;;;;
82310;SPS30;72015;51.330;12.316;2023-08-12T08:53:08;6.35;;6.35;;;;;;;
82310;SPS30;72015;51.330;12.316;2023-08-12T08:57:16;6.35;;6.35;;;;;;;
82310;SPS30;72015;51.330;12.316;2023-08-12T09:01:24;6.35;;6.35;;;;;;;
82310;SPS30;72015;51.330;12.316;2023-08-12T09:05:32;6.47;;6.47;;;;;;;
82310;SPS30;72015;51.330;12.316;2023-08-12T09:09:41;6.47;;6.47;;;;;;;
82310;SPS30;72015;51.330;12.316;2023-08-12T09:13:48;5.46;;5.46;;;;;;;
82310;SPS30;72015;51.330;12.316;2023-08-12T09:17:56;5.46;;5.46;;;;;;;
82310;SPS30;72015;51.330;12.316;2023-08-12T09:22:04;5.86;;5.86;;;;;;;
82310;SPS30;72015;51.330;12.316;2023-08-12T09:26:13;5.86;;5.86;;;;;;;
82310;SPS30;72015;51.330;12.316;2023-08-12T09:30:20;5.86;;5.86;;;;;;;
82310;SPS30;72015;51.330;12.316;2023-08-12T09:34:28;6.73;;6.73;;;;;;;
82310;SPS30;72015;51.330;12.316;2023-08-12T09:38:36;6.73;;6.73;;;;;;;
82310;SPS30;72015;51.330;12.316;2023-08-12T09:42:45;5.79;;5.79;;;;;;;
82310;SPS30;72015;51.330;12.316;2023-08-12T09:46:56;5.79;;5.79;;;;;;;
82310;SPS30;72015;51.330;12.316;2023-08-12T09:51:00;5.79;;5.79;;;;;;;
82310;SPS30;72015;51.330;12.316;2023-08-12T09:55:08;5.98;;5.98;;;;;;;
82310;SPS30;72015;51.330;12.316;2023-08-12T09:59:18;5.98;;5.98;;;;;;;
82310;SPS30;72015;51.330;12.316;2023-08-12T10:03:24;5.52;;5.52;;;;;;;
82310;SPS30;72015;51.330;12.316;2023-08-12T10:07:32;5.52;;5.52;;;;;;;
82310;SPS30;72015;51.330;12.316;2023-08-12T10:11:41;5.52;;5.52;;;;;;;
82310;SPS30;72015;51.330;12.316;2023-08-12T10:15:51;5.96;;5.96;;;;;;;
82310;SPS30;72015;51.330;12.316;2023-08-12T10:19:56;5.96;;5.96;;;;;;;
82310;SPS30;72015;51.330;12.316;2023-08-12T10:24:05;6.00;;6.00;;;;;;;
82310;SPS30;72015;51.330;12.316;2023-08-12T10:28:12;6.00;;6.00;;;;;;;
82310;SPS30;72015;51.330;12.316;2023-08-12T10:32:20;6.41;;6.41;;;;;;;
82310;SPS30;72015;51.330;12.316;2023-08-12T10:36:28;6.41;;6.41;;;;;;;
82310;SPS30;72015;51.330;12.316;2023-08-12T10:40:36;6.41;;6.41;;;;;;;
82310;SPS30;72015;51.330;12.316;2023-08-12T10:53:20;6.12;;6.12;;;;;;;
82310;SPS30;72015;51.330;12.316;2023-08-12T10:57:09;6.12;;6.12;;;;;;;
82310;SPS30;72015;51.330;12.316;2023-08-12T11:01:16;6.12;;6.12;;;;;;;
82310;SPS30;72015;51.330;12.316;2023-08-12T11:05:25;7.12;;6.76;;;;;;;
82310;SPS30;72015;51.330;12.316;2023-08-12T11:09:33;7.12;;6.76;;;;;;;
82310;SPS30;72015;51.330;12.316;2023-08-12T11:13:46;7.12;;7.07;;;;;;;
82310;SPS30;72015;51.330;12.316;2023-08-12T11:17:48;7.12;;7.07;;;;;;;
82310;SPS30;72015;51.330;12.316;2023-08-12T11:21:56;6.11;;6.11;;;;;;;
82310;SPS30;72015;51.330;12.316;2023-08-12T11:26:04;6.11;;6.11;;;;;;;
82310;SPS30;72015;51.330;12.316;2023-08-12T11:30:13;6.11;;6.11;;;;;;;
82310;SPS30;72015;51.330;12.316;2023-08-12T11:34:20;6.65;;6.65;;;;;;;
82310;SPS30;72015;51.330;12.316;2023-08-12T11:38:28;6.65;;6.65;;;;;;;
82310;SPS30;72015;51.330;12.316;2023-08-12T11:42:37;5.66;;5.66;;;;;;;
82310;SPS30;72015;51.330;12.316;2023-08-12T11:46:44;5.66;;5.66;;;;;;;
82310;SPS30;72015;51.330;12.316;2023-08-12T11:50:52;5.66;;5.66;;;;;;;
82310;SPS30;72015;51.330;12.316;2023-08-12T11:55:00;6.33;;5.86;;;;;;;
82310;SPS30;72015;51.330;12.316;2023-08-12T11:59:08;6.33;;5.86;;;;;;;
82310;SPS30;72015;51.330;12.316;2023-08-12T12:03:16;5.33;;5.33;;;;;;;
82310;SPS30;72015;51.330;12.316;2023-08-12T12:07:25;5.33;;5.33;;;;;;;
82310;SPS30;72015;51.330;12.316;2023-08-12T12:11:32;5.33;;5.33;;;;;;;
82310;SPS30;72015;51.330;12.316;2023-08-12T12:15:43;4.52;;4.52;;;;;;;
82310;SPS30;72015;51.330;12.316;2023-08-12T12:23:56;4.16;;4.16;;;;;;;
82310;SPS30;72015;51.330;12.316;2023-08-12T12:28:05;4.16;;4.16;;;;;;;
82310;SPS30;72015;51.330;12.316;2023-08-12T12:32:12;3.53;;3.53;;;;;;;
82310;SPS30;72015;51.330;12.316;2023-08-12T12:36:20;3.53;;3.53;;;;;;;
82310;SPS30;72015;51.330;12.316;2023-08-12T12:40:28;3.53;;3.53;;;;;;;
82310;SPS30;72015;51.330;12.316;2023-08-12T12:44:36;5.52;;4.75;;;;;;;
82310;SPS30;72015;51.330;12.316;2023-08-12T12:48:44;5.52;;4.75;;;;;;;
82310;SPS30;72015;51.330;12.316;2023-08-12T12:52:52;4.12;;4.12;;;;;;;
82310;SPS30;72015;51.330;12.316;2023-08-12T12:57:00;4.12;;4.12;;;;;;;
82310;SPS30;72015;51.330;12.316;2023-08-12T13:01:08;4.12;;4.12;;;;;;;
82310;SPS30;72015;51.330;12.316;2023-08-12T13:05:16;3.47;;3.47;;;;;;;
82310;SPS30;72015;51.330;12.316;2023-08-12T13:09:24;3.47;;3.47;;;;;;;
82310;SPS30;72015;51.330;12.316;2023-08-12T13:13:32;3.57;;3.57;;;;;;;
82310;SPS30;72015;51.330;12.316;2023-08-12T13:17:40;3.57;;3.57;;;;;;;
82310;SPS30;72015;51.330;12.316;2023-08-12T13:21:48;3.81;;3.81;;;;;;;
82310;SPS30;72015;51.330;12.316;2023-08-12T13:25:56;3.81;;3.81;;;;;;;
82310;SPS30;72015;51.330;12.316;2023-08-12T13:30:05;3.81;;3.81;;;;;;;
82310;SPS30;72015;51.330;12.316;2023-08-12T13:34:12;3.59;;3.59;;;;;;;
82310;SPS30;72015;51.330;12.316;2023-08-12T13:38:20;3.59;;3.59;;;;;;;
82310;SPS30;72015;51.330;12.316;2023-08-12T13:42:28;4.05;;4.05;;;;;;;
82310;SPS30;72015;51.330;12.316;2023-08-12T13:46:36;4.05;;4.05;;;;;;;
82310;SPS30;72015;51.330;12.316;2023-08-12T13:50:44;4.05;;4.05;;;;;;;
82310;SPS30;72015;51.330;12.316;2023-08-12T13:54:53;3.97;;3.97;;;;;;;
82310;SPS30;72015;51.330;12.316;2023-08-12T13:59:00;3.97;;3.97;;;;;;;
82310;SPS30;72015;51.330;12.316;2023-08-12T14:03:08;3.95;;3.95;;;;;;;
82310;SPS30;72015;51.330;12.316;2023-08-12T14:07:16;3.95;;3.95;;;;;;;
82310;SPS30;72015;51.330;12.316;2023-08-12T14:11:24;3.95;;3.95;;;;;;;
82310;SPS30;72015;51.330;12.316;2023-08-12T14:15:32;3.98;;3.98;;;;;;;
82310;SPS30;72015;51.330;12.316;2023-08-12T14:19:40;3.98;;3.98;;;;;;;
82310;SPS30;72015;51.330;12.316;2023-08-12T14:23:48;3.51;;3.51;;;;;;;
82310;SPS30;72015;51.330;12.316;2023-08-12T14:27:56;3.51;;3.51;;;;;;;
82310;SPS30;72015;51.330;12.316;2023-08-12T14:32:05;3.89;;3.89;;;;;;;
82310;SPS30;72015;51.330;12.316;2023-08-12T14:36:13;3.89;;3.89;;;;;;;
82310;SPS30;72015;51.330;12.316;2023-08-12T14:40:21;3.89;;3.89;;;;;;;
82310;SPS30;72015;51.330;12.316;2023-08-12T14:44:29;3.76;;3.76;;;;;;;
82310;SPS30;72015;51.330;12.316;2023-08-12T14:48:37;3.76;;3.76;;;;;;;
82310;SPS30;72015;51.330;12.316;2023-08-12T14:52:45;3.53;;3.53;;;;;;;
82310;SPS30;72015;51.330;12.316;2023-08-12T14:56:53;3.53;;3.53;;;;;;;
82310;SPS30;72015;51.330;12.316;2023-08-12T15:01:01;3.53;;3.53;;;;;;;
82310;SPS30;72015;51.330;12.316;2023-08-12T15:05:09;4.54;;4.54;;;;;;;
82310;SPS30;72015;51.330;12.316;2023-08-12T15:09:17;4.54;;4.54;;;;;;;
82310;SPS30;72015;51.330;12.316;2023-08-12T15:13:25;4.33;;4.33;;;;;;;
82310;SPS30;72015;51.330;12.316;2023-08-12T15:17:33;4.33;;4.33;;;;;;;
82310;SPS30;72015;51.330;12.316;2023-08-12T15:21:41;4.33;;4.33;;;;;;;
82310;SPS30;72015;51.330;12.316;2023-08-12T15:25:49;5.91;;5.22;;;;;;;
82310;SPS30;72015;51.330;12.316;2023-08-12T15:29:57;5.91;;5.22;;;;;;;
82310;SPS30;72015;51.330;12.316;2023-08-12T15:34:05;5.04;;5.04;;;;;;;
82310;SPS30;72015;51.330;12.316;2023-08-12T15:38:13;5.04;;5.04;;;;;;;
82310;SPS30;72015;51.330;12.316;2023-08-12T15:42:21;5.14;;5.14;;;;;;;
82310;SPS30;72015;51.330;12.316;2023-08-12T15:46:29;5.14;;5.14;;;;;;;
82310;SPS30;72015;51.330;12.316;2023-08-12T15:50:37;5.14;;5.14;;;;;;;
82310;SPS30;72015;51.330;12.316;2023-08-12T15:54:45;5.55;;5.55;;;;;;;
82310;SPS30;72015;51.330;12.316;2023-08-12T15:58:56;5.55;;5.55;;;;;;;
82310;SPS30;72015;51.330;12.316;2023-08-12T16:03:01;4.89;;4.89;;;;;;;
82310;SPS30;72015;51.330;12.316;2023-08-12T16:07:12;4.89;;4.89;;;;;;;
82310;SPS30;72015;51.330;12.316;2023-08-12T16:19:33;7.05;;6.66;;;;;;;
82310;SPS30;72015;51.330;12.316;2023-08-12T16:32:00;6.48;;6.08;;;;;;;
82310;SPS30;72015;51.330;12.316;2023-08-12T16:36:05;6.48;;6.08;;;;;;;
82310;SPS30;72015;51.330;12.316;2023-08-12T16:40:13;6.48;;6.08;;;;;;;
82310;SPS30;72015;51.330;12.316;2023-08-12T16:44:21;6.98;;6.98;;;;;;;
82310;SPS30;72015;51.330;12.316;2023-08-12T16:48:29;6.98;;6.98;;;;;;;
82310;SPS30;72015;51.330;12.316;2023-08-12T16:52:37;6.96;;6.82;;;;;;;
82310;SPS30;72015;51.330;12.316;2023-08-12T16:56:45;6.96;;6.82;;;;;;;
82310;SPS30;72015;51.330;12.316;2023-08-12T17:00:54;6.96;;6.82;;;;;;;
82310;SPS30;72015;51.330;12.316;2023-08-12T17:05:01;8.39;;8.39;;;;;;;
82310;SPS30;72015;51.330;12.316;2023-08-12T17:09:09;8.39;;8.39;;;;;;;
82310;SPS30;72015;51.330;12.316;2023-08-12T17:13:17;7.01;;7.01;;;;;;;
82310;SPS30;72015;51.330;12.316;2023-08-12T17:17:25;7.01;;7.01;;;;;;;
82310;SPS30;72015;51.330;12.316;2023-08-12T17:21:33;7.01;;7.01;;;;;;;
82310;SPS30;72015;51.330;12.316;2023-08-12T17:25:44;6.80;;6.80;;;;;;;
82310;SPS30;72015;51.330;12.316;2023-08-12T17:29:49;6.80;;6.80;;;;;;;
82310;SPS30;72015;51.330;12.316;2023-08-12T17:33:57;8.09;;7.36;;;;;;;
82310;SPS30;72015;51.330;12.316;2023-08-12T17:38:05;8.09;;7.36;;;;;;;
82310;SPS30;72015;51.330;12.316;2023-08-12T17:42:13;6.15;;5.94;;;;;;;
82310;SPS30;72015;51.330;12.316;2023-08-12T17:46:21;6.15;;5.94;;;;;;;
82310;SPS30;72015;51.330;12.316;2023-08-12T17:50:29;6.15;;5.94;;;;;;;
82310;SPS30;72015;51.330;12.316;2023-08-12T17:54:37;6.20;;6.20;;;;;;;
82310;SPS30;72015;51.330;12.316;2023-08-12T17:58:45;6.20;;6.20;;;;;;;
82310;SPS30;72015;51.330;12.316;2023-08-12T18:02:53;5.23;;5.23;;;;;;;
82310;SPS30;72015;51.330;12.316;2023-08-12T18:07:01;5.23;;5.23;;;;;;;
82310;SPS30;72015;51.330;12.316;2023-08-12T18:11:09;5.23;;5.23;;;;;;;
82310;SPS30;72015;51.330;12.316;2023-08-12T18:15:17;6.84;;6.58;;;;;;;
82310;SPS30;72015;51.330;12.316;2023-08-12T18:19:25;6.84;;6.58;;;;;;;
82310;SPS30;72015;51.330;12.316;2023-08-12T18:23:33;5.62;;5.62;;;;;;;
82310;SPS30;72015;51.330;12.316;2023-08-12T18:27:41;5.62;;5.62;;;;;;;
82310;SPS30;72015;51.330;12.316;2023-08-12T18:31:49;7.80;;7.25;;;;;;;
82310;SPS30;72015;51.330;12.316;2023-08-12T18:35:57;7.80;;7.25;;;;;;;
82310;SPS30;72015;51.330;12.316;2023-08-12T18:40:05;7.80;;7.25;;;;;;;
82310;SPS30;72015;51.330;12.316;2023-08-12T18:44:13;6.73;;6.73;;;;;;;
82310;SPS30;72015;51.330;12.316;2023-08-12T18:48:21;6.73;;6.73;;;;;;;
82310;SPS30;72015;51.330;12.316;2023-08-12T18:52:29;10.45;;9.11;;;;;;;
82310;SPS30;72015;51.330;12.316;2023-08-12T18:56:37;10.45;;9.11;;;;;;;
82310;SPS30;72015;51.330;12.316;2023-08-12T19:00:45;10.45;;9.11;;;;;;;
82310;SPS30;72015;51.330;12.316;2023-08-12T19:04:53;6.93;;6.93;;;;;;;
82310;SPS30;72015;51.330;12.316;2023-08-12T19:09:01;6.93;;6.93;;;;;;;
82310;SPS30;72015;51.330;12.316;2023-08-12T19:13:09;7.72;;7.72;;;;;;;
82310;SPS30;72015;51.330;12.316;2023-08-12T19:17:17;7.72;;7.72;;;;;;;
82310;SPS30;72015;51.330;12.316;2023-08-12T19:21:25;7.72;;7.72;;;;;;;
82310;SPS30;72015;51.330;12.316;2023-08-12T19:25:33;6.66;;6.66;;;;;;;
82310;SPS30;72015;51.330;12.316;2023-08-12T19:29:41;6.66;;6.66;;;;;;;
82310;SPS30;72015;51.330;12.316;2023-08-12T19:33:49;6.70;;6.70;;;;;;;
82310;SPS30;72015;51.330;12.316;2023-08-12T19:37:57;6.70;;6.70;;;;;;;
82310;SPS30;72015;51.330;12.316;2023-08-12T19:42:05;5.96;;5.96;;;;;;;
82310;SPS30;72015;51.330;12.316;2023-08-12T19:46:13;5.96;;5.96;;;;;;;
82310;SPS30;72015;51.330;12.316;2023-08-12T19:50:21;5.96;;5.96;;;;;;;
82310;SPS30;72015;51.330;12.316;2023-08-12T19:54:29;15.43;;13.81;;;;;;;
82310;SPS30;72015;51.330;12.316;2023-08-12T19:58:37;15.43;;13.81;;;;;;;
82310;SPS30;72015;51.330;12.316;2023-08-12T20:02:45;5.89;;5.89;;;;;;;
82310;SPS30;72015;51.330;12.316;2023-08-12T20:06:53;5.89;;5.89;;;;;;;
82310;SPS30;72015;51.330;12.316;2023-08-12T20:11:01;5.89;;5.89;;;;;;;
82310;SPS30;72015;51.330;12.316;2023-08-12T20:15:09;7.53;;6.47;;;;;;;
82310;SPS30;72015;51.330;12.316;2023-08-12T20:19:17;7.53;;6.47;;;;;;;
82310;SPS30;72015;51.330;12.316;2023-08-12T20:23:25;5.83;;5.62;;;;;;;
82310;SPS30;72015;51.330;12.316;2023-08-12T20:27:33;5.83;;5.62;;;;;;;
82310;SPS30;72015;51.330;12.316;2023-08-12T20:31:41;5.83;;5.62;;;;;;;
82310;SPS30;72015;51.330;12.316;2023-08-12T20:35:49;5.70;;5.70;;;;;;;
82310;SPS30;72015;51.330;12.316;2023-08-12T20:39:57;5.70;;5.70;;;;;;;
82310;SPS30;72015;51.330;12.316;2023-08-12T20:44:05;6.05;;5.57;;;;;;;
82310;SPS30;72015;51.330;12.316;2023-08-12T20:48:13;6.05;;5.57;;;;;;;
82310;SPS30;72015;51.330;12.316;2023-08-12T20:52:21;4.82;;4.82;;;;;;;
82310;SPS30;72015;51.330;12.316;2023-08-12T20:56:29;4.82;;4.82;;;;;;;
82310;SPS30;72015;51.330;12.316;2023-08-12T21:00:38;4.82;;4.82;;;;;;;
82310;SPS30;72015;51.330;12.316;2023-08-12T21:04:45;4.42;;4.42;;;;;;;
82310;SPS30;72015;51.330;12.316;2023-08-12T21:08:53;4.42;;4.42;;;;;;;
82310;SPS30;72015;51.330;12.316;2023-08-12T21:13:01;7.59;;7.05;;;;;;;
82310;SPS30;72015;51.330;12.316;2023-08-12T21:17:09;7.59;;7.05;;;;;;;
82310;SPS30;72015;51.330;12.316;2023-08-12T21:21:17;7.59;;7.05;;;;;;;
82310;SPS30;72015;51.330;12.316;2023-08-12T21:25:25;4.64;;4.64;;;;;;;
82310;SPS30;72015;51.330;12.316;2023-08-12T21:29:33;4.64;;4.64;;;;;;;
82310;SPS30;72015;51.330;12.316;2023-08-12T21:33:41;5.42;;5.42;;;;;;;
82310;SPS30;72015;51.330;12.316;2023-08-12T21:37:49;5.42;;5.42;;;;;;;
82310;SPS30;72015;51.330;12.316;2023-08-12T21:41:57;4.32;;4.32;;;;;;;
82310;SPS30;72015;51.330;12.316;2023-08-12T21:46:05;4.32;;4.32;;;;;;;
82310;SPS30;72015;51.330;12.316;2023-08-12T21:50:13;4.32;;4.32;;;;;;;
82310;SPS30;72015;51.330;12.316;2023-08-12T21:54:28;4.90;;4.90;;;;;;;
82310;SPS30;72015;51.330;12.316;2023-08-12T21:58:29;4.90;;4.90;;;;;;;
82310;SPS30;72015;51.330;12.316;2023-08-12T22:02:39;4.25;;4.03;;;;;;;
82310;SPS30;72015;51.330;12.316;2023-08-12T22:06:45;4.25;;4.03;;;;;;;
82310;SPS30;72015;51.330;12.316;2023-08-12T22:10:56;4.25;;4.03;;;;;;;
82310;SPS30;72015;51.330;12.316;2023-08-12T22:15:02;4.00;;4.00;;;;;;;
82310;SPS30;72015;51.330;12.316;2023-08-12T22:19:09;4.00;;4.00;;;;;;;
82310;SPS30;72015;51.330;12.316;2023-08-12T22:23:17;6.37;;5.08;;;;;;;
82310;SPS30;72015;51.330;12.316;2023-08-12T22:27:25;6.37;;5.08;;;;;;;
82310;SPS30;72015;51.330;12.316;2023-08-12T22:31:33;6.37;;5.08;;;;;;;
82310;SPS30;72015;51.330;12.316;2023-08-12T22:35:41;3.61;;3.46;;;;;;;
82310;SPS30;72015;51.330;12.316;2023-08-12T22:39:49;3.61;;3.46;;;;;;;
82310;SPS30;72015;51.330;12.316;2023-08-12T22:43:57;4.19;;3.88;;;;;;;
82310;SPS30;72015;51.330;12.316;2023-08-12T22:48:05;4.19;;3.88;;;;;;;
82310;SPS30;72015;51.330;12.316;2023-08-12T22:52:13;3.67;;3.67;;;;;;;
82310;SPS30;72015;51.330;12.316;2023-08-12T22:56:21;3.67;;3.67;;;;;;;
82310;SPS30;72015;51.330;12.316;2023-08-12T23:00:29;3.67;;3.67;;;;;;;
82310;SPS30;72015;51.330;12.316;2023-08-12T23:04:37;4.52;;4.15;;;;;;;
82310;SPS30;72015;51.330;12.316;2023-08-12T23:08:45;4.52;;4.15;;;;;;;
82310;SPS30;72015;51.330;12.316;2023-08-12T23:12:53;5.15;;4.60;;;;;;;
82310;SPS30;72015;51.330;12.316;2023-08-12T23:17:01;5.15;;4.60;;;;;;;
82310;SPS30;72015;51.330;12.316;2023-08-12T23:25:17;5.35;;4.89;;;;;;;
82310;SPS30;72015;51.330;12.316;2023-08-12T23:29:25;5.35;;4.89;;;;;;;
82310;SPS30;72015;51.330;12.316;2023-08-12T23:33:33;4.55;;4.14;;;;;;;
82310;SPS30;72015;51.330;12.316;2023-08-12T23:37:41;4.55;;4.14;;;;;;;
82310;SPS30;72015;51.330;12.316;2023-08-12T23:41:49;3.71;;3.71;;;;;;;
82310;SPS30;72015;51.330;12.316;2023-08-12T23:45:58;3.71;;3.71;;;;;;;
82310;SPS30;72015;51.330;12.316;2023-08-12T23:50:08;3.71;;3.71;;;;;;;
82310;SPS30;72015;51.330;12.316;2023-08-12T23:54:13;3.24;;3.24;;;;;;;
82310;SPS30;72015;51.330;12.316;2023-08-12T23:58:21;3.24;;3.24;;;;;;;
